createdAt,value
2018-10-18T00:02:32.042Z,8.6
2018-10-18T00:07:31.960Z,8.6
2018-10-18T00:12:31.920Z,8.5
2018-10-18T00:17:31.916Z,8.5
2018-10-18T00:22:31.919Z,8.3
2018-10-18T00:27:31.869Z,8.3
2018-10-18T00:32:31.901Z,8.4
2018-10-18T00:37:31.920Z,8.4
2018-10-18T00:42:32.115Z,8.2
2018-10-18T00:47:43.635Z,8.2
2018-10-18T00:52:43.564Z,8.2
2018-10-18T00:57:43.358Z,8.2
2018-10-18T01:02:43.511Z,8.1
2018-10-18T01:07:43.384Z,8.1
2018-10-18T01:12:43.476Z,8
2018-10-18T01:17:43.380Z,7.9
2018-10-18T01:22:43.652Z,7.9
2018-10-18T01:27:43.790Z,7.9
2018-10-18T01:32:55.981Z,7.9
2018-10-18T01:37:55.978Z,7.8
2018-10-18T01:42:55.860Z,7.8
2018-10-18T01:47:55.751Z,7.7
2018-10-18T01:52:55.936Z,7.7
2018-10-18T01:57:55.737Z,7.6
2018-10-18T02:02:55.871Z,7.6
2018-10-18T02:07:56.466Z,7.7
2018-10-18T02:12:56.386Z,7.6
2018-10-18T02:18:08.789Z,7.6
2018-10-18T02:23:08.630Z,7.5
2018-10-18T02:28:08.659Z,7.5
2018-10-18T02:33:08.513Z,7.5
2018-10-18T02:38:08.633Z,7.4
2018-10-18T02:43:08.532Z,7.4
2018-10-18T02:48:08.681Z,7.3
2018-10-18T02:53:09.057Z,7.3
2018-10-18T02:58:08.791Z,7.3
2018-10-18T03:03:21.172Z,7.3
2018-10-18T03:08:21.121Z,7.2
2018-10-18T03:13:21.046Z,7.2
2018-10-18T03:18:21.105Z,7.2
2018-10-18T03:23:20.926Z,7.1
2018-10-18T03:28:21.053Z,7.1
2018-10-18T03:33:21.086Z,7
2018-10-18T03:38:21.380Z,7
2018-10-18T03:43:21.258Z,7
2018-10-18T03:48:33.875Z,7
2018-10-18T03:53:33.620Z,7
2018-10-18T03:58:33.739Z,6.9
2018-10-18T04:03:33.774Z,6.8
2018-10-18T04:08:33.836Z,6.9
2018-10-18T04:13:33.870Z,6.8
2018-10-18T04:18:33.704Z,6.8
2018-10-18T04:23:35.371Z,6.7
2018-10-18T04:28:35.280Z,6.7
2018-10-18T04:33:49.254Z,6.7
2018-10-18T04:38:49.054Z,6.7
2018-10-18T04:43:48.870Z,6.7
2018-10-18T04:48:49.140Z,6.6
2018-10-18T04:53:48.892Z,6.6
2018-10-18T04:58:49.113Z,6.6
2018-10-18T05:03:48.917Z,6.6
2018-10-18T05:08:52.872Z,6.5
2018-10-18T05:13:52.794Z,6.5
2018-10-18T05:19:10.836Z,6.5
2018-10-18T05:24:10.589Z,6.5
2018-10-18T05:29:13.014Z,6.5
2018-10-18T05:34:12.719Z,6.5
2018-10-18T05:39:25.706Z,6.4
2018-10-18T05:44:25.660Z,6.4
2018-10-18T05:49:25.583Z,6.5
2018-10-18T05:54:25.643Z,6.5
2018-10-18T05:59:25.415Z,6.5
2018-10-18T06:04:25.594Z,6.6
2018-10-18T06:09:25.450Z,6.7
2018-10-18T06:14:27.341Z,6.8
2018-10-18T06:19:27.324Z,6.9
2018-10-18T06:24:37.831Z,7
2018-10-18T06:29:37.561Z,7.2
2018-10-18T06:34:37.800Z,7.3
2018-10-18T06:39:37.705Z,7.5
2018-10-18T06:44:37.570Z,7.7
2018-10-18T06:49:37.614Z,8
2018-10-18T06:54:37.700Z,8.2
2018-10-18T06:59:40.625Z,8.4
2018-10-18T07:04:40.342Z,8.7
2018-10-18T07:09:58.524Z,8.9
2018-10-18T07:14:58.429Z,9.2
2018-10-18T07:19:58.220Z,9.4
2018-10-18T07:24:58.396Z,9.6
2018-10-18T07:29:58.255Z,9.8
2018-10-18T07:34:58.403Z,10
2018-10-18T07:39:58.502Z,10.3
2018-10-18T07:44:59.894Z,10.5
2018-10-18T07:49:59.781Z,10.7
2018-10-18T07:55:11.854Z,10.9
2018-10-18T08:00:11.926Z,11
2018-10-18T08:05:11.542Z,11.3
2018-10-18T08:10:11.540Z,11.5
2018-10-18T08:15:11.732Z,11.7
2018-10-18T08:20:11.778Z,11.9
2018-10-18T08:25:11.638Z,12.1
2018-10-18T08:30:11.564Z,12.1
2018-10-18T08:35:11.781Z,12.4
2018-10-18T08:40:24.060Z,12.6
2018-10-18T08:45:24.037Z,12.8
2018-10-18T08:50:23.955Z,12.9
2018-10-18T08:55:23.825Z,13.1
2018-10-18T09:00:23.788Z,13.3
2018-10-18T09:05:23.824Z,13.3
2018-10-18T09:10:23.980Z,13.5
2018-10-18T09:15:23.789Z,13.8
2018-10-18T09:20:23.797Z,13.9
2018-10-18T09:25:36.865Z,14.1
2018-10-18T09:30:36.598Z,14.2
2018-10-18T09:35:36.742Z,14.1
2018-10-18T09:40:36.701Z,14.6
2018-10-18T09:45:36.588Z,14.6
2018-10-18T09:50:36.739Z,14.9
2018-10-18T09:55:36.921Z,15
2018-10-18T10:00:36.784Z,15
2018-10-18T10:05:36.963Z,15.2
2018-10-18T10:10:49.693Z,15.2
2018-10-18T10:15:49.419Z,15.5
2018-10-18T10:20:49.543Z,15.5
2018-10-18T10:25:49.587Z,15.8
2018-10-18T10:30:49.433Z,15.9
2018-10-18T10:35:49.362Z,16
2018-10-18T10:40:49.423Z,15.9
2018-10-18T10:45:50.687Z,16
2018-10-18T10:50:50.337Z,16.1
2018-10-18T10:56:03.060Z,16.4
2018-10-18T11:01:05.549Z,16.4
2018-10-18T11:06:02.933Z,16.5
2018-10-18T11:11:02.894Z,16.6
2018-10-18T11:16:02.815Z,16.8
2018-10-18T11:21:02.888Z,16.7
2018-10-18T11:26:02.954Z,16.9
2018-10-18T11:31:03.367Z,17
2018-10-18T11:36:03.111Z,16.9
2018-10-18T11:41:15.926Z,17
2018-10-18T11:46:15.589Z,17.1
2018-10-18T11:51:17.061Z,17.1
2018-10-18T11:56:15.851Z,17.2
2018-10-18T12:01:16.482Z,17.4
2018-10-18T12:06:15.771Z,17.2
2018-10-18T12:11:15.917Z,17.4
2018-10-18T12:16:15.752Z,17.4
2018-10-18T12:21:16.007Z,17.5
2018-10-18T12:26:15.993Z,17.6
2018-10-18T12:31:27.987Z,17.5
2018-10-18T12:36:27.972Z,17.5
2018-10-18T12:41:28.058Z,17.7
2018-10-18T12:46:27.911Z,17.8
2018-10-18T12:51:27.951Z,17.8
2018-10-18T12:56:27.756Z,17.8
2018-10-18T13:01:27.738Z,17.9
2018-10-18T13:06:27.940Z,17.9
2018-10-18T13:11:27.838Z,18
2018-10-18T13:16:27.902Z,17.9
2018-10-18T13:21:27.939Z,17.9
2018-10-18T13:26:27.975Z,17.9
2018-10-18T13:31:28.749Z,17.8
2018-10-18T13:36:28.678Z,17.9
2018-10-18T13:41:40.735Z,17.9
2018-10-18T13:46:40.455Z,17.9
2018-10-18T13:51:40.628Z,18.1
2018-10-18T13:56:40.670Z,17.9
2018-10-18T14:01:40.466Z,17.9
2018-10-18T14:06:40.631Z,17.9
2018-10-18T14:11:40.488Z,17.9
2018-10-18T14:16:43.074Z,17.7
2018-10-18T14:21:42.792Z,17.5
2018-10-18T14:26:53.622Z,17.4
2018-10-18T14:31:53.416Z,17.3
2018-10-18T14:36:53.295Z,17.2
2018-10-18T14:41:53.576Z,17.1
2018-10-18T14:46:53.497Z,17
2018-10-18T14:51:53.380Z,16.9
2018-10-18T14:56:53.601Z,16.8
2018-10-18T15:01:56.478Z,16.7
2018-10-18T15:06:56.295Z,16.6
2018-10-18T15:12:08.398Z,16.4
2018-10-18T15:17:08.241Z,16.3
2018-10-18T15:22:08.273Z,16.1
2018-10-18T15:27:08.352Z,16.1
2018-10-18T15:32:08.498Z,15.9
2018-10-18T15:37:08.276Z,15.8
2018-10-18T15:42:08.427Z,15.7
2018-10-18T15:47:12.678Z,15.5
2018-10-18T15:52:12.688Z,15.4
2018-10-18T15:57:22.869Z,15.3
2018-10-18T16:02:22.794Z,15.1
2018-10-18T16:07:22.710Z,15
2018-10-18T16:12:22.747Z,14.9
2018-10-18T16:17:22.603Z,14.7
2018-10-18T16:22:22.609Z,14.6
2018-10-18T16:27:22.745Z,14.4
2018-10-18T16:32:25.392Z,14.3
2018-10-18T16:37:25.252Z,14.2
2018-10-18T16:42:37.112Z,14.1
2018-10-18T16:47:37.052Z,14
2018-10-18T16:52:37.083Z,13.8
2018-10-18T16:57:36.830Z,13.7
2018-10-18T17:02:37.024Z,13.6
2018-10-18T17:07:36.957Z,13.5
2018-10-18T17:12:36.981Z,13.4
2018-10-18T17:17:37.600Z,13.3
2018-10-18T17:22:37.429Z,13.3
2018-10-18T17:27:50.059Z,13.2
2018-10-18T17:32:49.909Z,13.1
2018-10-18T17:37:49.788Z,13.1
2018-10-18T17:42:49.800Z,13
2018-10-18T17:47:49.926Z,12.9
2018-10-18T17:52:49.982Z,12.9
2018-10-18T17:57:50.000Z,12.8
2018-10-18T18:02:50.433Z,12.8
2018-10-18T18:07:50.183Z,12.8
2018-10-18T18:13:02.927Z,12.7
2018-10-18T18:18:02.802Z,12.7
2018-10-18T18:23:02.757Z,12.6
2018-10-18T18:28:02.872Z,12.5
2018-10-18T18:33:02.924Z,12.5
2018-10-18T18:38:02.989Z,12.4
2018-10-18T18:43:02.804Z,12.4
2018-10-18T18:48:04.808Z,12.3
2018-10-18T18:53:04.876Z,12.3
2018-10-18T18:58:17.906Z,12.2
2018-10-18T19:03:17.598Z,12.2
2018-10-18T19:08:17.810Z,12.1
2018-10-18T19:13:17.764Z,12
2018-10-18T19:18:17.771Z,12
2018-10-18T19:23:17.890Z,12
2018-10-18T19:28:17.838Z,12
2018-10-18T19:33:17.777Z,11.9
2018-10-18T19:38:17.610Z,11.9
2018-10-18T19:43:30.705Z,11.9
2018-10-18T19:48:30.424Z,11.9
2018-10-18T19:53:30.617Z,11.8
2018-10-18T19:58:30.649Z,11.8
2018-10-18T20:03:30.429Z,11.9
2018-10-18T20:08:30.413Z,11.9
2018-10-18T20:13:30.450Z,11.8
2018-10-18T20:18:30.472Z,11.9
2018-10-18T20:23:30.593Z,11.8
2018-10-18T20:28:45.881Z,11.8
2018-10-18T20:33:45.629Z,11.8
2018-10-18T20:38:45.612Z,11.7
2018-10-18T20:43:45.608Z,11.8
2018-10-18T20:48:45.617Z,11.7
2018-10-18T20:53:45.631Z,11.6
2018-10-18T20:58:45.704Z,11.6
2018-10-18T21:03:47.253Z,11.6
2018-10-18T21:08:47.192Z,11.5
2018-10-18T21:13:57.830Z,11.4
2018-10-18T21:18:57.499Z,11.3
2018-10-18T21:23:57.549Z,11.3
2018-10-18T21:28:57.635Z,11.3
2018-10-18T21:33:57.606Z,11.3
2018-10-18T21:38:57.542Z,11.3
2018-10-18T21:43:57.768Z,11.3
2018-10-18T21:48:59.747Z,11.2
2018-10-18T21:53:59.781Z,11.2
2018-10-18T21:59:10.084Z,11.1
2018-10-18T22:04:09.602Z,11.1
2018-10-18T22:09:09.716Z,10.9
2018-10-18T22:14:09.873Z,10.9
2018-10-18T22:19:09.768Z,10.7
2018-10-18T22:24:09.811Z,10.7
2018-10-18T22:29:09.668Z,10.6
2018-10-18T22:34:11.934Z,10.5
2018-10-18T22:39:11.701Z,10.5
2018-10-18T22:44:22.623Z,10.4
2018-10-18T22:49:22.591Z,10.4
2018-10-18T22:54:22.352Z,10.3
2018-10-18T22:59:22.544Z,10.2
2018-10-18T23:04:22.582Z,10.1
2018-10-18T23:09:22.358Z,10.1
2018-10-18T23:14:22.539Z,10
2018-10-18T23:19:23.021Z,10
2018-10-18T23:24:22.729Z,10
2018-10-18T23:29:35.045Z,10
2018-10-18T23:34:34.966Z,9.9
2018-10-18T23:39:34.894Z,9.8
2018-10-18T23:44:34.777Z,9.8
2018-10-18T23:49:34.775Z,9.7
2018-10-18T23:54:34.772Z,9.6
2018-10-18T23:59:34.781Z,9.6
